Aeroporto :
LOGIN :

Iscrizione | Disclaimer

   EN    FR    IT 

 










Sommario :    VFR   VFR Marginale   IFR   IFR Intensivo   IFR Molto Intensivo
Visibilità : 
Base nubi : 
>= 8 km
>= 3000ft
5 / 8 km
1000 / 3000 ft
1500m / 5 km
500 / 1000 ft
800 / 1500m
200 / 500 ft
< 800m
< 200 ft
Simboli :   Temporali  Nebbia  Neve Forte  Precipitazioni Forti  Vento > 20 kt
SIGMETs :   Varie  Temporali  Ghiacco  Turbolenza  Onda orograficha  Ceneri Vulcaniche






- Altitudine del aeroporto : 74 ft
- Codice IATA : LRH


LFBH - La Rochelle Ile de Ré

ULTIMO METAR :
  • 221030Z AUTO 06011KT CAVOK 14/10 Q1022 BECMG 05015G25KT

METARs OBSOLETI :
  • 221000Z AUTO 05010KT CAVOK 12/10 Q1022 NOSIG
  • 220930Z AUTO 06009KT CAVOK 11/09 Q1022 NOSIG
  • 220900Z AUTO 06011KT CAVOK 11/09 Q1022 TEMPO BKN005
  • 220830Z AUTO 06008KT CAVOK 09/08 Q1022 TEMPO BKN005
  • 220800Z AUTO 04007KT CAVOK 08/08 Q1022 TEMPO BKN005

TAF TAF LFBH
Valido dal 22 a 06 ore il 23 a 06 ore UTC


220500Z 2206/2306 10007KT CAVOK
BECMG 2208/2210 04010KT
PROB40
TEMPO 2208/2210 BKN005
BECMG 2212/2214 05015G25KT
TEMPO 2220/2306 4000 -RA BKN010
ATIS : +33 5 46 00 13 92



MetMap, La meteo Aeronautica in un colpo d'occhio ! - Copyright ORBIFLY Dicembre 2007 - Disclaimer

ORBIFLY MET'MAP TEAM :

Programmazione e sviluppo : Alexandra Zaïnal
Concezione e sviluppo : Baudouin d'Aumeries
Co-Programmazione e sviluppo : Marc-Olivier Méhu
Supporto tecnico e logistico : Manuel Goepfert
Aiuto per la traduzione : Arnaldo La Scala

Contatto : metmap@orbifly.com




FONTI E CREDITI :

   NOAA